createdAt,value
2023-05-16T00:02:03.248Z,36.28
2023-05-16T00:04:29.944Z,36.21
2023-05-16T00:06:56.621Z,36.28
2023-05-16T00:09:23.169Z,36.11
2023-05-16T00:11:50.335Z,36.21
2023-05-16T00:14:19.167Z,36.55
2023-05-16T00:16:46.724Z,36.72
2023-05-16T00:19:13.281Z,36.65
2023-05-16T00:21:39.946Z,36.65
2023-05-16T00:24:07.122Z,36.68
2023-05-16T00:26:33.622Z,36.95
2023-05-16T00:29:00.194Z,37.11
2023-05-16T00:31:27.203Z,37.32
2023-05-16T00:33:54.303Z,37.12
2023-05-16T00:36:23.019Z,37.56
2023-05-16T00:38:50.483Z,37.30
2023-05-16T00:41:17.139Z,37.40
2023-05-16T00:43:44.456Z,37.63
2023-05-16T00:46:11.407Z,37.90
2023-05-16T00:48:37.925Z,37.78
2023-05-16T00:51:08.663Z,37.96
2023-05-16T00:53:36.504Z,37.64
2023-05-16T00:56:03.328Z,37.87
2023-05-16T00:58:31.645Z,37.99
2023-05-16T01:00:58.164Z,37.92
2023-05-16T01:03:24.789Z,37.90
2023-05-16T01:05:53.146Z,38.08
2023-05-16T01:08:20.732Z,37.84
2023-05-16T01:11:00.159Z,37.96
2023-05-16T01:13:33.074Z,37.83
2023-05-16T01:16:04.486Z,37.84
2023-05-16T01:18:41.634Z,37.60
2023-05-16T01:21:15.077Z,37.86
2023-05-16T01:23:52.319Z,37.94
2023-05-16T01:26:23.353Z,37.59
2023-05-16T01:28:51.001Z,37.53
2023-05-16T01:31:19.073Z,37.67
2023-05-16T01:33:45.944Z,37.88
2023-05-16T01:36:21.875Z,37.73
2023-05-16T01:38:56.593Z,37.76
2023-05-16T01:41:46.177Z,37.35
2023-05-16T01:44:17.988Z,37.55
2023-05-16T01:46:45.684Z,37.64
2023-05-16T01:49:46.281Z,37.59
2023-05-16T01:52:20.318Z,37.78
2023-05-16T01:54:47.663Z,37.56
2023-05-16T01:57:14.221Z,37.74
2023-05-16T01:59:42.166Z,37.81
2023-05-16T02:02:10.475Z,37.59
2023-05-16T02:04:37.897Z,37.82
2023-05-16T02:07:04.771Z,37.69
2023-05-16T02:09:31.938Z,37.67
2023-05-16T02:11:59.983Z,37.61
2023-05-16T02:14:26.554Z,37.63
2023-05-16T02:16:53.312Z,37.44
2023-05-16T02:19:20.620Z,37.48
2023-05-16T02:21:47.369Z,37.11
2023-05-16T02:24:13.905Z,37.09
2023-05-16T02:26:40.480Z,37.13
2023-05-16T02:29:07.129Z,37.02
2023-05-16T02:31:36.933Z,36.89
2023-05-16T02:34:03.562Z,36.96
2023-05-16T02:36:30.269Z,36.66
2023-05-16T02:38:57.139Z,36.83
2023-05-16T02:41:24.368Z,36.73
2023-05-16T02:43:51.075Z,36.90
2023-05-16T02:46:25.856Z,36.98
2023-05-16T02:48:52.882Z,36.78
2023-05-16T02:51:20.323Z,37.03
2023-05-16T02:53:47.002Z,37.12
2023-05-16T02:56:13.867Z,37.02
2023-05-16T02:58:41.561Z,37.37
2023-05-16T03:01:09.020Z,37.06
2023-05-16T03:03:36.450Z,37.45
2023-05-16T03:06:03.398Z,37.31
2023-05-16T03:08:30.173Z,37.36
2023-05-16T03:10:57.744Z,37.40
2023-05-16T03:13:24.593Z,37.60
2023-05-16T03:15:52.125Z,37.39
2023-05-16T03:18:18.676Z,37.47
2023-05-16T03:20:45.289Z,37.46
2023-05-16T03:23:12.166Z,37.51
2023-05-16T03:25:39.174Z,37.51
2023-05-16T03:28:07.466Z,37.35
2023-05-16T03:30:34.471Z,37.59
2023-05-16T03:33:01.295Z,37.32
2023-05-16T03:35:28.405Z,37.65
2023-05-16T03:37:55.559Z,37.51
2023-05-16T03:40:22.224Z,37.49
2023-05-16T03:42:48.770Z,37.40
2023-05-16T03:45:15.357Z,37.16
2023-05-16T03:47:42.193Z,37.46
2023-05-16T03:50:09.353Z,37.39
2023-05-16T03:52:36.390Z,37.27
2023-05-16T03:55:03.663Z,37.32
2023-05-16T03:57:31.242Z,37.37
2023-05-16T03:59:57.819Z,37.39
2023-05-16T04:02:24.521Z,37.23
2023-05-16T04:04:51.270Z,37.16
2023-05-16T04:07:20.324Z,37.17
2023-05-16T04:09:48.462Z,37.17
2023-05-16T04:12:15.227Z,37.06
2023-05-16T04:14:42.091Z,36.90
2023-05-16T04:18:52.497Z,37.81
2023-05-16T04:21:19.435Z,36.90
2023-05-16T04:23:46.156Z,36.67
2023-05-16T04:26:14.594Z,36.54
2023-05-16T04:28:41.659Z,36.60
2023-05-16T04:31:08.505Z,36.66
2023-05-16T04:33:35.395Z,36.41
2023-05-16T04:36:02.522Z,36.06
2023-05-16T04:38:29.312Z,36.34
2023-05-16T04:40:56.130Z,36.12
2023-05-16T04:43:22.904Z,36.13
2023-05-16T04:45:50.792Z,36.29
2023-05-16T04:48:17.566Z,35.99
2023-05-16T04:50:44.389Z,36.12
2023-05-16T04:53:11.082Z,35.81
2023-05-16T04:55:37.844Z,35.52
2023-05-16T04:58:04.573Z,35.82
2023-05-16T05:00:31.360Z,35.52
2023-05-16T05:02:58.091Z,35.38
2023-05-16T05:05:25.035Z,35.66
2023-05-16T05:07:52.564Z,36.29
2023-05-16T05:10:19.369Z,36.76
2023-05-16T05:12:46.148Z,37.18
2023-05-16T05:15:13.595Z,36.74
2023-05-16T05:17:40.416Z,36.44
2023-05-16T05:20:08.742Z,36.21
2023-05-16T05:22:35.484Z,36.04
2023-05-16T05:25:02.190Z,35.67
2023-05-16T05:27:29.093Z,35.48
2023-05-16T05:29:56.206Z,35.28
2023-05-16T05:32:22.901Z,35.35
2023-05-16T05:34:49.788Z,35.56
2023-05-16T05:37:16.488Z,36.27
2023-05-16T05:39:43.185Z,35.97
2023-05-16T05:42:09.932Z,36.13
2023-05-16T05:44:37.984Z,36.68
2023-05-16T05:47:05.930Z,36.91
2023-05-16T05:49:32.694Z,36.44
2023-05-16T05:51:59.477Z,36.48
2023-05-16T05:54:26.135Z,36.72
2023-05-16T05:56:52.896Z,37.82
2023-05-16T05:59:19.670Z,38.14
2023-05-16T06:01:46.973Z,38.31
2023-05-16T06:04:13.742Z,38.48
2023-05-16T06:06:40.680Z,38.84
2023-05-16T06:09:07.370Z,39.11
2023-05-16T06:11:34.161Z,38.65
2023-05-16T06:14:00.971Z,38.38
2023-05-16T06:16:27.786Z,38.63
2023-05-16T06:18:54.792Z,38.67
2023-05-16T06:21:21.529Z,38.46
2023-05-16T06:23:48.256Z,38.27
2023-05-16T06:26:15.026Z,38.71
2023-05-16T06:28:41.730Z,38.70
2023-05-16T06:31:08.556Z,38.38
2023-05-16T06:33:35.367Z,38.21
2023-05-16T06:36:02.095Z,37.65
2023-05-16T06:38:29.286Z,37.03
2023-05-16T06:40:56.034Z,36.98
2023-05-16T06:43:23.357Z,36.80
2023-05-16T06:45:50.186Z,36.37
2023-05-16T06:48:18.369Z,36.24
2023-05-16T06:50:49.433Z,35.57
2023-05-16T06:53:16.205Z,35.70
2023-05-16T06:55:42.995Z,35.45
2023-05-16T06:58:09.877Z,35.14
2023-05-16T07:00:37.732Z,35.12
2023-05-16T07:03:04.804Z,34.74
2023-05-16T07:05:31.727Z,34.70
2023-05-16T07:07:58.530Z,34.56
2023-05-16T07:10:25.862Z,34.29
2023-05-16T07:12:52.673Z,34.51
2023-05-16T07:15:19.597Z,34.27
2023-05-16T07:17:46.397Z,34.42
2023-05-16T07:20:14.824Z,34.00
2023-05-16T07:22:41.662Z,34.23
2023-05-16T07:25:12.706Z,34.24
2023-05-16T07:27:44.950Z,34.48
2023-05-16T07:30:13.150Z,34.59
2023-05-16T07:32:40.477Z,34.77
2023-05-16T07:35:07.938Z,34.71
2023-05-16T07:37:35.224Z,34.89
2023-05-16T07:40:02.330Z,34.83
2023-05-16T07:42:29.574Z,35.14
2023-05-16T07:44:57.171Z,34.62
2023-05-16T07:47:24.459Z,34.43
2023-05-16T07:49:51.320Z,34.34
2023-05-16T07:52:18.177Z,34.56
2023-05-16T07:54:46.942Z,34.80
2023-05-16T07:57:17.516Z,34.66
2023-05-16T07:59:45.022Z,34.94
2023-05-16T08:02:11.987Z,34.64
2023-05-16T08:04:38.981Z,35.02
2023-05-16T08:07:06.226Z,35.28
2023-05-16T08:09:33.366Z,35.61
2023-05-16T08:12:03.754Z,36.47
2023-05-16T08:14:33.969Z,37.11
2023-05-16T08:17:00.772Z,37.18
2023-05-16T08:19:27.887Z,37.55
2023-05-16T08:21:55.010Z,37.50
2023-05-16T08:24:21.810Z,37.79
2023-05-16T08:26:48.787Z,38.21
2023-05-16T08:29:15.757Z,39.39
2023-05-16T08:31:42.596Z,40.04
2023-05-16T08:34:10.522Z,39.91
2023-05-16T08:36:37.872Z,40.84
2023-05-16T08:39:05.122Z,41.19
2023-05-16T08:41:31.965Z,42.07
2023-05-16T08:43:58.835Z,42.12
2023-05-16T08:46:25.656Z,42.51
2023-05-16T08:48:53.774Z,43.17
2023-05-16T08:51:20.919Z,43.26
2023-05-16T08:53:55.086Z,43.33
2023-05-16T08:56:22.462Z,43.54
2023-05-16T08:58:50.693Z,43.40
2023-05-16T09:01:17.486Z,43.41
2023-05-16T09:03:44.344Z,43.19
2023-05-16T09:06:11.406Z,42.51
2023-05-16T09:08:38.408Z,41.91
2023-05-16T09:11:05.535Z,41.55
2023-05-16T09:13:32.310Z,40.98
2023-05-16T09:16:16.056Z,40.35
2023-05-16T09:18:44.229Z,39.39
2023-05-16T09:21:11.584Z,38.86
2023-05-16T09:23:38.512Z,38.55
2023-05-16T09:26:05.436Z,38.11
2023-05-16T09:28:32.200Z,37.67
2023-05-16T09:31:00.153Z,36.67
2023-05-16T09:33:27.400Z,36.65
2023-05-16T09:35:58.425Z,36.09
2023-05-16T09:38:26.587Z,36.03
2023-05-16T09:40:54.359Z,35.35
2023-05-16T09:43:29.686Z,35.26
2023-05-16T09:45:59.155Z,35.00
2023-05-16T09:48:28.588Z,34.43
2023-05-16T09:50:56.103Z,34.89
2023-05-16T09:53:30.455Z,34.65
2023-05-16T09:56:08.435Z,33.11
2023-05-16T09:58:36.315Z,32.58
2023-05-16T10:01:04.939Z,32.66
2023-05-16T10:03:34.692Z,31.48
2023-05-16T10:06:01.761Z,31.52
2023-05-16T10:08:28.605Z,31.95
2023-05-16T10:10:56.642Z,31.88
2023-05-16T10:13:25.032Z,32.09
2023-05-16T10:15:51.843Z,34.21
2023-05-16T10:18:19.839Z,35.25
2023-05-16T10:20:49.237Z,36.05
2023-05-16T10:23:20.439Z,35.26
2023-05-16T10:25:48.830Z,35.18
2023-05-16T10:28:16.755Z,34.63
2023-05-16T10:30:45.849Z,34.86
2023-05-16T10:33:17.229Z,34.82
2023-05-16T10:35:44.345Z,35.29
2023-05-16T10:38:12.619Z,35.14
2023-05-16T10:40:40.133Z,35.08
2023-05-16T10:43:08.666Z,35.09
2023-05-16T10:45:44.673Z,34.98
2023-05-16T10:48:12.656Z,34.81
2023-05-16T10:50:44.072Z,35.12
2023-05-16T10:53:12.389Z,35.08
2023-05-16T10:55:39.946Z,35.14
2023-05-16T10:58:06.712Z,35.39
2023-05-16T11:00:33.483Z,35.19
2023-05-16T11:03:06.747Z,35.04
2023-05-16T11:05:34.095Z,35.10
2023-05-16T11:08:07.438Z,35.00
2023-05-16T11:10:34.287Z,35.07
2023-05-16T11:13:07.944Z,34.73
2023-05-16T11:15:34.903Z,34.54
2023-05-16T11:18:09.382Z,34.68
2023-05-16T11:20:39.928Z,34.54
2023-05-16T11:23:19.483Z,34.60
2023-05-16T11:25:46.913Z,34.78
2023-05-16T11:28:14.556Z,34.35
2023-05-16T11:30:48.684Z,34.54
2023-05-16T11:33:16.485Z,34.31
2023-05-16T11:35:43.633Z,34.09
2023-05-16T11:38:16.716Z,33.68
2023-05-16T11:40:44.602Z,33.45
2023-05-16T11:43:12.316Z,33.34
2023-05-16T11:45:39.215Z,33.44
2023-05-16T11:48:06.452Z,33.46
2023-05-16T11:50:34.443Z,33.67
2023-05-16T11:53:01.587Z,33.61
2023-05-16T11:55:41.365Z,33.75
2023-05-16T11:58:09.494Z,33.64
2023-05-16T12:00:36.559Z,33.77
2023-05-16T12:03:05.514Z,33.59
2023-05-16T12:05:34.761Z,33.68
2023-05-16T12:08:02.973Z,33.69
2023-05-16T12:10:32.127Z,33.78
2023-05-16T12:12:59.298Z,33.88
2023-05-16T12:15:26.340Z,33.85
2023-05-16T12:17:53.657Z,33.84
2023-05-16T12:20:20.399Z,33.82
2023-05-16T12:22:47.197Z,33.64
2023-05-16T12:25:30.225Z,33.88
2023-05-16T12:28:01.616Z,33.93
2023-05-16T12:30:29.742Z,33.71
2023-05-16T12:33:01.052Z,33.93
2023-05-16T12:35:33.312Z,33.67
2023-05-16T12:38:01.332Z,33.76
2023-05-16T12:40:29.831Z,34.01
2023-05-16T12:42:56.958Z,34.10
2023-05-16T12:45:24.005Z,34.21
2023-05-16T12:47:51.428Z,34.24
2023-05-16T12:50:18.267Z,33.83
2023-05-16T12:52:52.016Z,34.06
2023-05-16T12:55:19.738Z,34.11
2023-05-16T12:57:48.022Z,34.04
2023-05-16T13:00:16.713Z,34.28
2023-05-16T13:02:43.597Z,34.29
2023-05-16T13:05:10.504Z,34.51
2023-05-16T13:07:39.737Z,34.65
2023-05-16T13:10:10.871Z,34.57
2023-05-16T13:12:39.273Z,34.55
2023-05-16T13:15:10.599Z,34.42
2023-05-16T13:17:40.801Z,34.22
2023-05-16T13:20:13.851Z,34.22
2023-05-16T13:22:41.288Z,34.11
2023-05-16T13:25:09.154Z,34.02
2023-05-16T13:27:36.137Z,33.82
2023-05-16T13:30:04.462Z,34.16
2023-05-16T13:32:31.288Z,34.28
2023-05-16T13:34:58.113Z,34.18
2023-05-16T13:37:24.848Z,34.26
2023-05-16T13:39:52.743Z,34.18
2023-05-16T13:42:19.508Z,34.19
2023-05-16T13:44:46.230Z,34.12
2023-05-16T13:47:12.958Z,33.94
2023-05-16T13:49:39.755Z,33.93
2023-05-16T13:52:06.829Z,33.68
2023-05-16T13:54:33.716Z,33.53
2023-05-16T13:57:01.717Z,32.84
2023-05-16T13:59:48.798Z,32.32
2023-05-16T14:02:15.309Z,31.32
2023-05-16T14:04:41.959Z,31.23
2023-05-16T14:07:09.001Z,31.36
2023-05-16T14:09:39.549Z,31.12
2023-05-16T14:12:07.504Z,31.05
2023-05-16T14:14:35.218Z,31.26
2023-05-16T14:17:02.097Z,31.48
2023-05-16T14:19:28.939Z,31.76
2023-05-16T14:21:56.137Z,31.71
2023-05-16T14:24:23.331Z,31.99
2023-05-16T14:26:50.391Z,32.06
2023-05-16T14:29:17.148Z,32.28
2023-05-16T14:31:43.963Z,32.48
2023-05-16T14:34:10.726Z,32.65
2023-05-16T14:36:37.802Z,32.48
2023-05-16T14:39:05.553Z,32.93
2023-05-16T14:41:32.340Z,32.90
2023-05-16T14:43:59.155Z,33.06
2023-05-16T14:46:26.017Z,33.10
2023-05-16T14:48:53.176Z,33.13
2023-05-16T14:51:20.043Z,33.34
2023-05-16T14:53:47.424Z,33.35
2023-05-16T14:56:14.417Z,33.58
2023-05-16T14:58:41.171Z,33.59
2023-05-16T15:01:08.063Z,33.77
2023-05-16T15:03:46.813Z,33.91
2023-05-16T15:06:18.040Z,33.96
2023-05-16T15:08:44.931Z,33.99
2023-05-16T15:11:11.877Z,33.96
2023-05-16T15:13:39.278Z,34.00
2023-05-16T15:16:06.303Z,34.19
2023-05-16T15:18:33.236Z,34.22
2023-05-16T15:21:00.182Z,34.28
2023-05-16T15:23:26.941Z,34.56
2023-05-16T15:25:54.766Z,34.44
2023-05-16T15:28:22.762Z,34.46
2023-05-16T15:30:51.371Z,34.50
2023-05-16T15:33:19.265Z,34.63
2023-05-16T15:35:46.242Z,34.75
2023-05-16T15:38:13.117Z,34.76
2023-05-16T15:40:39.947Z,34.91
2023-05-16T15:43:07.191Z,34.79
2023-05-16T15:45:34.019Z,34.88
2023-05-16T15:48:02.312Z,34.74
2023-05-16T15:50:29.263Z,34.60
2023-05-16T15:52:58.391Z,34.56
2023-05-16T15:55:25.507Z,34.55
2023-05-16T15:57:56.932Z,34.71
2023-05-16T16:00:25.035Z,34.45
2023-05-16T16:02:52.365Z,34.49
2023-05-16T16:05:19.243Z,34.63
2023-05-16T16:07:46.131Z,34.59
2023-05-16T16:10:12.926Z,34.46
2023-05-16T16:12:39.695Z,34.46
2023-05-16T16:15:07.792Z,34.56
2023-05-16T16:17:34.607Z,34.45
2023-05-16T16:20:01.388Z,34.53
2023-05-16T16:22:28.174Z,34.44
2023-05-16T16:24:54.908Z,34.65
2023-05-16T16:27:21.679Z,34.79
2023-05-16T16:29:48.560Z,34.80
2023-05-16T16:32:15.345Z,34.77
2023-05-16T16:36:17.058Z,35.77
2023-05-16T16:38:43.822Z,34.90
2023-05-16T16:41:10.562Z,35.08
2023-05-16T16:43:40.154Z,35.08
2023-05-16T16:46:07.516Z,34.91
2023-05-16T16:48:34.691Z,34.99
2023-05-16T16:51:01.994Z,34.97
2023-05-16T16:53:29.078Z,34.89
2023-05-16T16:55:55.847Z,35.13
2023-05-16T16:58:22.630Z,35.13
2023-05-16T17:00:49.510Z,34.97
2023-05-16T17:03:16.608Z,35.20
2023-05-16T17:05:44.655Z,35.02
2023-05-16T17:08:12.211Z,35.19
2023-05-16T17:10:39.390Z,35.12
2023-05-16T17:13:10.536Z,35.35
2023-05-16T17:15:37.978Z,35.16
2023-05-16T17:18:08.419Z,35.18
2023-05-16T17:20:35.984Z,35.31
2023-05-16T17:23:03.364Z,35.41
2023-05-16T17:25:30.405Z,35.59
2023-05-16T17:27:57.437Z,35.57
2023-05-16T17:30:24.268Z,35.77
2023-05-16T17:32:51.749Z,35.87
2023-05-16T17:35:20.238Z,36.04
2023-05-16T17:37:48.115Z,36.06
2023-05-16T17:40:17.431Z,36.19
2023-05-16T17:42:45.231Z,36.40
2023-05-16T17:45:12.924Z,36.53
2023-05-16T17:47:40.195Z,36.53
2023-05-16T17:50:09.779Z,36.76
2023-05-16T17:52:39.805Z,36.79
2023-05-16T17:55:08.571Z,37.06
2023-05-16T17:57:35.431Z,36.88
2023-05-16T18:00:05.207Z,37.17
2023-05-16T18:02:32.217Z,37.19
2023-05-16T18:05:00.598Z,37.40
2023-05-16T18:07:27.487Z,37.53
2023-05-16T18:09:54.537Z,37.71
2023-05-16T18:12:21.524Z,37.85
2023-05-16T18:14:48.353Z,37.85
2023-05-16T18:17:15.197Z,38.15
2023-05-16T18:19:42.070Z,38.41
2023-05-16T18:22:10.264Z,38.34
2023-05-16T18:24:37.588Z,38.21
2023-05-16T18:27:04.554Z,38.52
2023-05-16T18:29:31.348Z,38.67
2023-05-16T18:31:58.190Z,38.73
2023-05-16T18:34:24.960Z,38.77
2023-05-16T18:36:52.847Z,38.91
2023-05-16T18:39:20.564Z,38.88
2023-05-16T18:41:48.386Z,38.83
2023-05-16T18:44:17.392Z,38.69
2023-05-16T18:46:46.049Z,39.14
2023-05-16T18:49:14.219Z,39.09
2023-05-16T18:51:41.143Z,39.06
2023-05-16T18:54:07.941Z,39.27
2023-05-16T18:56:34.737Z,39.39
2023-05-16T18:59:01.538Z,39.43
2023-05-16T19:01:28.713Z,39.42
2023-05-16T19:06:22.382Z,39.78
2023-05-16T19:08:49.140Z,39.87
2023-05-16T19:11:16.885Z,39.84
2023-05-16T19:13:44.851Z,39.77
2023-05-16T19:16:11.601Z,39.81
2023-05-16T19:18:38.735Z,39.62
2023-05-16T19:21:07.734Z,40.07
2023-05-16T19:23:34.535Z,39.87
2023-05-16T19:26:01.455Z,40.17
2023-05-16T19:28:28.323Z,40.19
2023-05-16T19:30:55.152Z,40.27
2023-05-16T19:33:22.955Z,40.35
2023-05-16T19:35:51.614Z,40.19
2023-05-16T19:38:20.033Z,39.95
2023-05-16T19:40:47.144Z,40.28
2023-05-16T19:43:13.983Z,40.46
2023-05-16T19:45:40.808Z,40.55
2023-05-16T19:48:08.360Z,40.41
2023-05-16T19:50:36.720Z,40.16
2023-05-16T19:53:04.185Z,40.27
2023-05-16T19:55:31.427Z,40.67
2023-05-16T19:57:58.637Z,40.56
2023-05-16T20:00:25.542Z,40.68
2023-05-16T20:02:52.514Z,41.05
2023-05-16T20:05:22.894Z,40.95
2023-05-16T20:07:50.007Z,40.80
2023-05-16T20:10:21.175Z,40.85
2023-05-16T20:12:48.903Z,41.42
2023-05-16T20:15:16.320Z,41.24
2023-05-16T20:17:44.267Z,41.22
2023-05-16T20:20:11.268Z,41.11
2023-05-16T20:22:41.882Z,41.35
2023-05-16T20:25:10.634Z,41.16
2023-05-16T20:27:37.883Z,41.41
2023-05-16T20:30:06.678Z,41.61
2023-05-16T20:32:33.740Z,41.38
2023-05-16T20:35:01.328Z,41.61
2023-05-16T20:37:29.081Z,41.51
2023-05-16T20:39:55.852Z,41.68
2023-05-16T20:42:22.614Z,41.42
2023-05-16T20:44:49.444Z,41.68
2023-05-16T20:47:17.195Z,41.58
2023-05-16T20:49:43.952Z,41.80
2023-05-16T20:52:10.887Z,41.99
2023-05-16T20:54:37.808Z,42.00
2023-05-16T20:57:05.018Z,42.07
2023-05-16T20:59:32.399Z,42.05
2023-05-16T21:02:00.431Z,41.76
2023-05-16T21:04:27.194Z,41.99
2023-05-16T21:06:54.971Z,42.04
2023-05-16T21:09:21.764Z,41.72
2023-05-16T21:11:48.629Z,41.92
2023-05-16T21:14:15.373Z,41.82
2023-05-16T21:16:42.125Z,41.88
2023-05-16T21:19:09.046Z,41.88
2023-05-16T21:21:36.131Z,42.13
2023-05-16T21:24:03.868Z,41.86
2023-05-16T21:26:30.637Z,42.08
2023-05-16T21:28:57.446Z,42.10
2023-05-16T21:31:24.216Z,41.83
2023-05-16T21:33:52.512Z,42.11
2023-05-16T21:36:20.314Z,42.16
2023-05-16T21:38:47.244Z,42.04
2023-05-16T21:41:14.594Z,42.26
2023-05-16T21:43:41.487Z,42.00
2023-05-16T21:46:08.304Z,42.33
2023-05-16T21:48:35.616Z,42.43
2023-05-16T21:51:03.429Z,42.43
2023-05-16T21:53:30.374Z,42.46
2023-05-16T21:55:57.106Z,42.36
2023-05-16T21:58:25.441Z,42.55
2023-05-16T22:00:52.405Z,42.30
2023-05-16T22:03:21.152Z,42.56
2023-05-16T22:05:48.187Z,42.84
2023-05-16T22:08:16.077Z,42.71
2023-05-16T22:10:42.875Z,43.08
2023-05-16T22:13:09.701Z,42.79
2023-05-16T22:15:36.477Z,42.77
2023-05-16T22:18:04.449Z,43.02
2023-05-16T22:20:31.450Z,43.09
2023-05-16T22:22:58.353Z,43.23
2023-05-16T22:25:25.153Z,43.15
2023-05-16T22:27:52.114Z,43.23
2023-05-16T22:30:18.929Z,43.25
2023-05-16T22:32:46.859Z,43.18
2023-05-16T22:35:14.102Z,43.30
2023-05-16T22:37:41.959Z,43.38
2023-05-16T22:40:09.284Z,43.55
2023-05-16T22:42:36.008Z,43.38
2023-05-16T22:45:04.038Z,43.54
2023-05-16T22:47:31.098Z,43.38
2023-05-16T22:49:57.994Z,43.48
2023-05-16T22:52:24.983Z,43.63
2023-05-16T22:54:51.835Z,43.50
2023-05-16T22:57:18.700Z,43.24
2023-05-16T22:59:45.715Z,43.38
2023-05-16T23:02:12.684Z,43.28
2023-05-16T23:04:39.481Z,43.27
2023-05-16T23:07:06.328Z,43.57
2023-05-16T23:09:33.100Z,43.66
2023-05-16T23:11:59.948Z,43.50
2023-05-16T23:14:26.714Z,43.47
2023-05-16T23:16:53.466Z,43.29
2023-05-16T23:19:20.361Z,43.60
2023-05-16T23:21:47.393Z,43.54
2023-05-16T23:24:14.162Z,43.38
2023-05-16T23:26:40.933Z,43.53
2023-05-16T23:29:07.910Z,43.78
2023-05-16T23:31:34.615Z,43.56
2023-05-16T23:34:02.393Z,43.51
2023-05-16T23:36:29.276Z,43.66
2023-05-16T23:38:56.057Z,43.59
2023-05-16T23:41:22.845Z,43.59
2023-05-16T23:43:49.724Z,43.36
2023-05-16T23:46:16.440Z,43.50
2023-05-16T23:48:43.350Z,43.44
2023-05-16T23:51:10.540Z,43.58
2023-05-16T23:53:37.301Z,43.42
2023-05-16T23:56:04.213Z,43.64
2023-05-16T23:58:31.078Z,43.60
